CheckWX is a tool to help pilots better visualize weather data.  It is not intended as a substitute for an official pre-flight weather briefing.

09:02:56 UTC

KHKS METAR
Hawkins Field Airport
Jackson, Mississippi, USA
Current

41 mins ago

KHKS 180822Z AUTO 17006KT 3SM BR OVC002 17/16 A3000 RMK AO2 T01670156
Observed
Feb-18 @ 08:22 UTC
Wind
  • 170° at 6 KTS
Visibility
3 SM
Flight Rules
LIFR
Conditions
Mist
Cloud Levels
  • Overcast at 200' AGL
Temperature
17°C / 63°F
Dewpoint
16°C / 61°F
Humidity
94%
Altimeter
30" Hg
Pressure
1015.92 hPa
Previous

58 mins ago

KHKS 180805Z AUTO 17007KT 2 1/2SM BR OVC002 17/16 A3000 RMK AO2 T01670156
Observed
Feb-18 @ 08:05 UTC
Wind
  • 170° at 7 KTS
Visibility
2 1/2 SM
Flight Rules
LIFR
Conditions
Mist
Cloud Levels
  • Overcast at 200' AGL
Temperature
17°C / 63°F
Dewpoint
16°C / 61°F
Humidity
94%
Altimeter
30" Hg
Pressure
1015.92 hPa
Previous

1 hour ago

KHKS 180753Z AUTO 16007KT 3SM BR OVC003 17/16 A3000 RMK AO2 SLP153 T01670156
Observed
Feb-18 @ 07:53 UTC
Wind
  • 160° at 7 KTS
Visibility
3 SM
Flight Rules
LIFR
Conditions
Mist
Cloud Levels
  • Overcast at 300' AGL
Temperature
17°C / 63°F
Dewpoint
16°C / 61°F
Humidity
94%
Altimeter
30" Hg
Pressure
1015.92 hPa